This is the latest recevied weather packets stored in our database for station/object W8CEN. If no packets are shown the sender has not sent any weather packets the latest 1 day(s).
| Time | Temp. | Humidity | Pressure | Rain* | Wind** | Luminosity | Snow |
|---|---|---|---|---|---|---|---|
| 1836274820 | 20° C | 87% | 999.2 hPa | 0 mm | 0.45 m/s, 63° | 0 W/m² | - |
| 1836274518 | 20° C | 87% | 999 hPa | 0 mm | 0.45 m/s, 44° | 0 W/m² | - |
| 1836274371 | 20° C | 87% | 999 hPa | 0 mm | 0.45 m/s, 51° | 0 W/m² | - |
| 1836274216 | 20° C | 86% | 999.1 hPa | 0 mm | 0.45 m/s, 80° | 0 W/m² | - |
| 1836273910 | 20° C | 86% | 998.9 hPa | 0 mm | 0 m/s | 0 W/m² | - |
| 1778032856 | 8.89° C | 97% | 988 hPa | 4.32 mm | 0 m/s | 0 W/m² | - |
| 1778032554 | 8.89° C | 97% | 987.7 hPa | 4.83 mm | 0 m/s | 0 W/m² | - |
| 1778032250 | 8.89° C | 97% | 987.8 hPa | 3.05 mm | 0 m/s | 0 W/m² | - |
| 1778031948 | 8.89° C | 97% | 987.6 hPa | 3.05 mm | 0 m/s | 0 W/m² | - |
| 1778031643 | 8.89° C | 97% | 987.5 hPa | 3.05 mm | 0.45 m/s, 249° | 0 W/m² | - |
| 1778031342 | 9.44° C | 97% | 987.6 hPa | 1.78 mm | 0 m/s | 0 W/m² | - |
| 1778031038 | 9.44° C | 97% | 987.7 hPa | 1.27 mm | 0 m/s | 0 W/m² | - |
| 1778030734 | 8.89° C | 97% | 987.6 hPa | 1.27 mm | 0 m/s | 0 W/m² | - |
| 1778030431 | 9.44° C | 97% | 987.5 hPa | 1.78 mm | 0.45 m/s, 273° | 0 W/m² | - |
| 1778030129 | 9.44° C | 97% | 987.3 hPa | 1.78 mm | 0.45 m/s, 256° | 0 W/m² | - |
| 1778029825 | 9.44° C | 97% | 987.3 hPa | 0 mm | 0.45 m/s, 255° | 0 W/m² | - |
| 1778029525 | 9.44° C | 97% | 987.1 hPa | 1.27 mm | 0 m/s | 0 W/m² | - |
| 1778029221 | 9.44° C | 96% | 987.2 hPa | 1.27 mm | 0 m/s | 0 W/m² | - |
| 1778028918 | 9.44° C | 96% | 987.1 hPa | 0 mm | 0 m/s | 0 W/m² | - |
| 1778028613 | 9.44° C | 96% | 987.2 hPa | 1.78 mm | 0 m/s | 0 W/m² | - |
| 1778028311 | 9.44° C | 96% | 987.3 hPa | 3.05 mm | 0 m/s | 0 W/m² | - |
| 1778028008 | 9.44° C | 96% | 987.5 hPa | 1.27 mm | 0 m/s | 0 W/m² | - |
| 1778027704 | 9.44° C | 96% | 987.2 hPa | 1.78 mm | 0 m/s | 1 W/m² | - |
| 1778027400 | 9.44° C | 96% | 987.6 hPa | 3.05 mm | 0 m/s | 1 W/m² | - |
| 1778027096 | 9.44° C | 95% | 987.3 hPa | 3.05 mm | 0 m/s | 1 W/m² | - |
* Rain latest hour (hover to see other rain measurements)
** Current wind speed in m/s (hover to see current wind gust speed)